sensor_id;sensor_type;location;lat;lon;timestamp;pressure;altitude;pressure_sealevel;temperature
49154;BMP280;49455;52.252;9.124;2022-10-17T07:18:43;99916.34;;;16.89
49154;BMP280;49455;52.252;9.124;2022-10-17T07:23:49;99930.34;;;17.01
49154;BMP280;49455;52.252;9.124;2022-10-17T07:28:53;99936.50;;;17.11
49154;BMP280;49455;52.252;9.124;2022-10-17T07:34:01;99953.94;;;17.15
49154;BMP280;49455;52.252;9.124;2022-10-17T07:39:03;99960.03;;;17.17
49154;BMP280;49455;52.252;9.124;2022-10-17T07:44:05;99942.63;;;17.16
49154;BMP280;49455;52.252;9.124;2022-10-17T07:49:10;99949.66;;;17.26
49154;BMP280;49455;52.252;9.124;2022-10-17T07:54:11;99942.72;;;17.30
49154;BMP280;49455;52.252;9.124;2022-10-17T07:59:11;99936.69;;;17.45
49154;BMP280;49455;52.252;9.124;2022-10-17T08:04:12;99936.72;;;17.62
49154;BMP280;49455;52.252;9.124;2022-10-17T08:09:12;99934.16;;;17.73
49154;BMP280;49455;52.252;9.124;2022-10-17T08:14:13;99937.69;;;17.88
49154;BMP280;49455;52.252;9.124;2022-10-17T08:19:13;99949.03;;;18.00
49154;BMP280;49455;52.252;9.124;2022-10-17T08:24:14;99941.16;;;17.97
49154;BMP280;49455;52.252;9.124;2022-10-17T08:29:15;99949.94;;;18.05
49154;BMP280;49455;52.252;9.124;2022-10-17T08:34:15;99936.88;;;18.11
49154;BMP280;49455;52.252;9.124;2022-10-17T08:39:16;99915.09;;;18.18
49154;BMP280;49455;52.252;9.124;2022-10-17T08:44:35;99914.19;;;18.38
49154;BMP280;49455;52.252;9.124;2022-10-17T08:49:42;99902.88;;;18.44
49154;BMP280;49455;52.252;9.124;2022-10-17T08:54:46;99894.13;;;18.46
49154;BMP280;49455;52.252;9.124;2022-10-17T08:59:52;99904.59;;;18.56
49154;BMP280;49455;52.252;9.124;2022-10-17T09:05:00;99907.22;;;18.61
49154;BMP280;49455;52.252;9.124;2022-10-17T09:10:12;99892.34;;;18.73
49154;BMP280;49455;52.252;9.124;2022-10-17T09:20:23;99901.84;;;19.20
49154;BMP280;49455;52.252;9.124;2022-10-17T09:25:25;99904.34;;;19.51
49154;BMP280;49455;52.252;9.124;2022-10-17T09:30:34;99903.41;;;19.67
49154;BMP280;49455;52.252;9.124;2022-10-17T09:35:36;99910.34;;;19.70
49154;BMP280;49455;52.252;9.124;2022-10-17T09:40:37;99913.81;;;19.81
49154;BMP280;49455;52.252;9.124;2022-10-17T09:45:48;99904.09;;;19.98
49154;BMP280;49455;52.252;9.124;2022-10-17T09:50:51;99905.66;;;20.23
49154;BMP280;49455;52.252;9.124;2022-10-17T09:56:01;99903.72;;;20.45
49154;BMP280;49455;52.252;9.124;2022-10-17T10:01:27;99899.03;;;20.80
49154;BMP280;49455;52.252;9.124;2022-10-17T10:06:28;99898.69;;;21.09
49154;BMP280;49455;52.252;9.124;2022-10-17T10:11:49;99902.81;;;21.37
49154;BMP280;49455;52.252;9.124;2022-10-17T10:16:50;99907.13;;;21.39
49154;BMP280;49455;52.252;9.124;2022-10-17T10:27:02;99911.22;;;21.62
49154;BMP280;49455;52.252;9.124;2022-10-17T10:32:21;99921.00;;;21.53
49154;BMP280;49455;52.252;9.124;2022-10-17T10:37:27;99931.53;;;21.50
49154;BMP280;49455;52.252;9.124;2022-10-17T10:42:33;99930.19;;;21.85
49154;BMP280;49455;52.252;9.124;2022-10-17T10:47:34;99933.66;;;21.87
49154;BMP280;49455;52.252;9.124;2022-10-17T10:53:24;99936.09;;;22.02
49154;BMP280;49455;52.252;9.124;2022-10-17T11:03:40;99925.81;;;22.42
49154;BMP280;49455;52.252;9.124;2022-10-17T11:19:26;99933.53;;;21.96
49154;BMP280;49455;52.252;9.124;2022-10-17T11:24:33;99955.53;;;21.90
49154;BMP280;49455;52.252;9.124;2022-10-17T11:29:38;99967.66;;;22.03
49154;BMP280;49455;52.252;9.124;2022-10-17T11:34:51;99971.03;;;22.15
49154;BMP280;49455;52.252;9.124;2022-10-17T11:39:53;99981.66;;;22.05
49154;BMP280;49455;52.252;9.124;2022-10-17T11:45:10;99981.81;;;21.95
49154;BMP280;49455;52.252;9.124;2022-10-17T11:50:27;99987.88;;;22.00
49154;BMP280;49455;52.252;9.124;2022-10-17T11:55:30;100001.09;;;21.95
49154;BMP280;49455;52.252;9.124;2022-10-17T12:05:56;100012.44;;;22.02
49154;BMP280;49455;52.252;9.124;2022-10-17T12:21:20;100025.63;;;21.97
49154;BMP280;49455;52.252;9.124;2022-10-17T12:26:26;100031.81;;;21.93
49154;BMP280;49455;52.252;9.124;2022-10-17T12:31:27;100022.19;;;21.92
49154;BMP280;49455;52.252;9.124;2022-10-17T12:46:41;100045.22;;;21.74
49154;BMP280;49455;52.252;9.124;2022-10-17T12:57:45;100046.03;;;21.79
49154;BMP280;49455;52.252;9.124;2022-10-17T13:02:49;100029.19;;;21.95
49154;BMP280;49455;52.252;9.124;2022-10-17T13:07:51;100043.38;;;21.82
49154;BMP280;49455;52.252;9.124;2022-10-17T13:13:12;100044.22;;;21.84
49154;BMP280;49455;52.252;9.124;2022-10-17T13:18:21;100045.13;;;21.82
49154;BMP280;49455;52.252;9.124;2022-10-17T13:23:29;100055.63;;;21.86
49154;BMP280;49455;52.252;9.124;2022-10-17T13:28:29;100035.47;;;21.82
49154;BMP280;49455;52.252;9.124;2022-10-17T13:33:37;100037.41;;;21.68
49154;BMP280;49455;52.252;9.124;2022-10-17T13:38:38;100047.97;;;21.65
49154;BMP280;49455;52.252;9.124;2022-10-17T13:43:39;100043.75;;;21.51
49154;BMP280;49455;52.252;9.124;2022-10-17T13:48:39;100053.41;;;21.49
49154;BMP280;49455;52.252;9.124;2022-10-17T13:53:40;100055.06;;;21.57
49154;BMP280;49455;52.252;9.124;2022-10-17T13:58:42;100053.22;;;21.65
49154;BMP280;49455;52.252;9.124;2022-10-17T14:03:43;100060.47;;;21.46
49154;BMP280;49455;52.252;9.124;2022-10-17T14:13:53;100073.56;;;21.47
49154;BMP280;49455;52.252;9.124;2022-10-17T14:18:54;100070.97;;;21.44
49154;BMP280;49455;52.252;9.124;2022-10-17T14:24:36;100076.28;;;21.43
49154;BMP280;49455;52.252;9.124;2022-10-17T14:29:52;100092.09;;;21.40
49154;BMP280;49455;52.252;9.124;2022-10-17T14:34:57;100091.25;;;21.30
49154;BMP280;49455;52.252;9.124;2022-10-17T14:39:59;100101.00;;;21.18
49154;BMP280;49455;52.252;9.124;2022-10-17T14:45:04;100109.72;;;21.20
49154;BMP280;49455;52.252;9.124;2022-10-17T14:50:29;100104.53;;;21.14
49154;BMP280;49455;52.252;9.124;2022-10-17T14:55:31;100130.88;;;21.08
49154;BMP280;49455;52.252;9.124;2022-10-17T15:00:32;100137.03;;;21.04
49154;BMP280;49455;52.252;9.124;2022-10-17T15:05:33;100146.75;;;20.96
49154;BMP280;49455;52.252;9.124;2022-10-17T15:10:35;100138.91;;;20.89
49154;BMP280;49455;52.252;9.124;2022-10-17T15:15:38;100144.16;;;20.89
49154;BMP280;49455;52.252;9.124;2022-10-17T15:20:38;100159.09;;;20.80
49154;BMP280;49455;52.252;9.124;2022-10-17T15:25:42;100164.38;;;20.74
49154;BMP280;49455;52.252;9.124;2022-10-17T15:30:42;100152.16;;;20.70
49154;BMP280;49455;52.252;9.124;2022-10-17T15:35:43;100160.97;;;20.60
49154;BMP280;49455;52.252;9.124;2022-10-17T15:40:43;100167.13;;;20.56
49154;BMP280;49455;52.252;9.124;2022-10-17T15:45:43;100171.50;;;20.48
49154;BMP280;49455;52.252;9.124;2022-10-17T15:50:44;100173.28;;;20.40
49154;BMP280;49455;52.252;9.124;2022-10-17T15:55:44;100170.63;;;20.43
49154;BMP280;49455;52.252;9.124;2022-10-17T16:00:45;100176.78;;;20.36
49154;BMP280;49455;52.252;9.124;2022-10-17T16:05:46;100197.81;;;20.33
49154;BMP280;49455;52.252;9.124;2022-10-17T16:10:47;100199.59;;;20.27
49154;BMP280;49455;52.252;9.124;2022-10-17T16:15:48;100197.84;;;20.26
49154;BMP280;49455;52.252;9.124;2022-10-17T16:20:48;100199.59;;;20.20
49154;BMP280;49455;52.252;9.124;2022-10-17T16:25:49;100210.13;;;20.11
49154;BMP280;49455;52.252;9.124;2022-10-17T16:30:49;100218.91;;;20.02
49154;BMP280;49455;52.252;9.124;2022-10-17T16:35:50;100218.03;;;19.95
49154;BMP280;49455;52.252;9.124;2022-10-17T16:40:50;100238.19;;;19.88
49154;BMP280;49455;52.252;9.124;2022-10-17T16:45:50;100249.53;;;19.83
49154;BMP280;49455;52.252;9.124;2022-10-17T16:50:51;100249.53;;;19.84
49154;BMP280;49455;52.252;9.124;2022-10-17T16:56:02;100247.78;;;19.86
49154;BMP280;49455;52.252;9.124;2022-10-17T17:01:08;100249.53;;;19.83
49154;BMP280;49455;52.252;9.124;2022-10-17T17:06:15;100251.25;;;19.70
49154;BMP280;49455;52.252;9.124;2022-10-17T17:11:17;100264.38;;;19.56
49154;BMP280;49455;52.252;9.124;2022-10-17T17:16:20;100275.72;;;19.47
49154;BMP280;49455;52.252;9.124;2022-10-17T17:21:21;100280.94;;;19.28
49154;BMP280;49455;52.252;9.124;2022-10-17T17:26:22;100298.38;;;19.16
49154;BMP280;49455;52.252;9.124;2022-10-17T17:31:25;100288.75;;;19.19
49154;BMP280;49455;52.252;9.124;2022-10-17T17:36:33;100294.88;;;19.18
49154;BMP280;49455;52.252;9.124;2022-10-17T17:41:34;100305.34;;;19.14
49154;BMP280;49455;52.252;9.124;2022-10-17T17:46:34;100315.84;;;19.09
49154;BMP280;49455;52.252;9.124;2022-10-17T17:51:36;100311.44;;;19.06
49154;BMP280;49455;52.252;9.124;2022-10-17T17:56:36;100314.06;;;19.03
49154;BMP280;49455;52.252;9.124;2022-10-17T18:01:37;100307.91;;;18.95
49154;BMP280;49455;52.252;9.124;2022-10-17T18:06:38;100313.97;;;18.89
49154;BMP280;49455;52.252;9.124;2022-10-17T18:11:38;100321.78;;;18.79
49154;BMP280;49455;52.252;9.124;2022-10-17T18:16:39;100322.59;;;18.66
49154;BMP280;49455;52.252;9.124;2022-10-17T18:21:39;100326.91;;;18.60
49154;BMP280;49455;52.252;9.124;2022-10-17T18:26:40;100324.22;;;18.45
49154;BMP280;49455;52.252;9.124;2022-10-17T18:31:40;100321.56;;;18.39
49154;BMP280;49455;52.252;9.124;2022-10-17T18:36:40;100325.03;;;18.35
49154;BMP280;49455;52.252;9.124;2022-10-17T18:41:41;100323.25;;;18.33
49154;BMP280;49455;52.252;9.124;2022-10-17T18:46:41;100336.34;;;18.31
49154;BMP280;49455;52.252;9.124;2022-10-17T18:51:42;100348.56;;;18.31
49154;BMP280;49455;52.252;9.124;2022-10-17T18:56:42;100357.25;;;18.30
49154;BMP280;49455;52.252;9.124;2022-10-17T19:01:43;100351.09;;;18.22
49154;BMP280;49455;52.252;9.124;2022-10-17T19:06:44;100352.78;;;18.14
49154;BMP280;49455;52.252;9.124;2022-10-17T19:11:44;100347.56;;;18.13
49154;BMP280;49455;52.252;9.124;2022-10-17T19:16:46;100358.78;;;18.03
49154;BMP280;49455;52.252;9.124;2022-10-17T19:21:47;100359.59;;;18.00
49154;BMP280;49455;52.252;9.124;2022-10-17T19:26:50;100357.81;;;17.90
49154;BMP280;49455;52.252;9.124;2022-10-17T19:31:51;100370.88;;;17.92
49154;BMP280;49455;52.252;9.124;2022-10-17T19:36:51;100378.72;;;17.90
49154;BMP280;49455;52.252;9.124;2022-10-17T19:41:52;100381.31;;;17.89
49154;BMP280;49455;52.252;9.124;2022-10-17T19:46:52;100385.63;;;17.83
49154;BMP280;49455;52.252;9.124;2022-10-17T19:51:53;100377.78;;;17.83
49154;BMP280;49455;52.252;9.124;2022-10-17T19:56:53;100385.47;;;17.71
49154;BMP280;49455;52.252;9.124;2022-10-17T20:01:54;100402.75;;;17.57
49154;BMP280;49455;52.252;9.124;2022-10-17T20:06:54;100410.69;;;17.64
49154;BMP280;49455;52.252;9.124;2022-10-17T20:11:54;100410.78;;;17.72
49154;BMP280;49455;52.252;9.124;2022-10-17T20:16:55;100425.53;;;17.67
49154;BMP280;49455;52.252;9.124;2022-10-17T20:21:55;100427.28;;;17.66
49154;BMP280;49455;52.252;9.124;2022-10-17T20:26:56;100433.34;;;17.65
49154;BMP280;49455;52.252;9.124;2022-10-17T20:31:56;100435.91;;;17.58
49154;BMP280;49455;52.252;9.124;2022-10-17T20:36:56;100448.91;;;17.52
49154;BMP280;49455;52.252;9.124;2022-10-17T20:41:57;100447.69;;;17.26
49154;BMP280;49455;52.252;9.124;2022-10-17T20:46:57;100466.19;;;17.43
49154;BMP280;49455;52.252;9.124;2022-10-17T20:51:58;100475.75;;;17.39
49154;BMP280;49455;52.252;9.124;2022-10-17T20:56:59;100479.97;;;17.28
49154;BMP280;49455;52.252;9.124;2022-10-17T21:02:00;100487.81;;;17.33
49154;BMP280;49455;52.252;9.124;2022-10-17T21:07:00;100496.72;;;17.45
49154;BMP280;49455;52.252;9.124;2022-10-17T21:12:01;100493.19;;;17.43
49154;BMP280;49455;52.252;9.124;2022-10-17T21:17:01;100515.78;;;17.38
49154;BMP280;49455;52.252;9.124;2022-10-17T21:22:02;100521.16;;;17.47
49154;BMP280;49455;52.252;9.124;2022-10-17T21:27:02;100519.28;;;17.40
49154;BMP280;49455;52.252;9.124;2022-10-17T21:32:03;100522.69;;;17.35
49154;BMP280;49455;52.252;9.124;2022-10-17T21:37:03;100511.22;;;17.24
49154;BMP280;49455;52.252;9.124;2022-10-17T21:42:04;100511.28;;;17.26
